sensor_id;sensor_type;location;lat;lon;timestamp;pressure;altitude;pressure_sealevel;temperature;humidity
11440;BME280;5776;51.814;4.510;2023-01-20T00:01:29;101074.25;;;4.11;100.00
11440;BME280;5776;51.814;4.510;2023-01-20T00:03:56;101081.94;;;4.08;100.00
11440;BME280;5776;51.814;4.510;2023-01-20T00:06:23;101087.59;;;4.06;100.00
11440;BME280;5776;51.814;4.510;2023-01-20T00:08:50;101091.06;;;4.07;100.00
11440;BME280;5776;51.814;4.510;2023-01-20T00:11:17;101084.31;;;4.04;100.00
11440;BME280;5776;51.814;4.510;2023-01-20T00:13:43;101092.38;;;4.04;100.00
11440;BME280;5776;51.814;4.510;2023-01-20T00:16:10;101091.06;;;4.07;100.00
11440;BME280;5776;51.814;4.510;2023-01-20T00:18:37;101090.28;;;4.06;100.00
11440;BME280;5776;51.814;4.510;2023-01-20T00:21:09;101091.56;;;4.04;100.00
11440;BME280;5776;51.814;4.510;2023-01-20T00:23:36;101092.59;;;4.03;100.00
11440;BME280;5776;51.814;4.510;2023-01-20T00:26:04;101090.16;;;4.01;100.00
11440;BME280;5776;51.814;4.510;2023-01-20T00:28:30;101100.06;;;4.01;100.00
11440;BME280;5776;51.814;4.510;2023-01-20T00:30:56;101099.75;;;3.97;100.00
11440;BME280;5776;51.814;4.510;2023-01-20T00:33:22;101100.34;;;3.99;100.00
11440;BME280;5776;51.814;4.510;2023-01-20T00:35:48;101097.66;;;3.99;100.00
11440;BME280;5776;51.814;4.510;2023-01-20T00:38:14;101103.25;;;3.98;100.00
11440;BME280;5776;51.814;4.510;2023-01-20T00:40:40;101094.38;;;3.97;100.00
11440;BME280;5776;51.814;4.510;2023-01-20T00:43:06;101100.78;;;3.96;100.00
11440;BME280;5776;51.814;4.510;2023-01-20T00:45:32;101105.13;;;3.97;100.00
11440;BME280;5776;51.814;4.510;2023-01-20T00:47:57;101103.47;;;3.96;100.00
11440;BME280;5776;51.814;4.510;2023-01-20T00:50:23;101096.69;;;3.94;100.00
11440;BME280;5776;51.814;4.510;2023-01-20T00:52:49;101096.97;;;3.92;100.00
11440;BME280;5776;51.814;4.510;2023-01-20T00:55:15;101110.41;;;3.92;100.00
11440;BME280;5776;51.814;4.510;2023-01-20T00:57:41;101097.78;;;3.93;100.00
11440;BME280;5776;51.814;4.510;2023-01-20T01:00:07;101108.75;;;3.91;100.00
11440;BME280;5776;51.814;4.510;2023-01-20T01:02:36;101110.63;;;3.90;100.00
11440;BME280;5776;51.814;4.510;2023-01-20T01:05:02;101108.19;;;3.89;100.00
11440;BME280;5776;51.814;4.510;2023-01-20T01:07:28;101106.53;;;3.88;100.00
11440;BME280;5776;51.814;4.510;2023-01-20T01:09:54;101117.28;;;3.88;100.00
11440;BME280;5776;51.814;4.510;2023-01-20T01:12:20;101111.91;;;3.88;100.00
11440;BME280;5776;51.814;4.510;2023-01-20T01:14:46;101122.66;;;3.88;100.00
11440;BME280;5776;51.814;4.510;2023-01-20T01:17:12;101119.38;;;3.86;100.00
11440;BME280;5776;51.814;4.510;2023-01-20T01:19:38;101126.41;;;3.87;100.00
11440;BME280;5776;51.814;4.510;2023-01-20T01:22:04;101120.44;;;3.85;100.00
11440;BME280;5776;51.814;4.510;2023-01-20T01:24:30;101119.06;;;3.82;100.00
11440;BME280;5776;51.814;4.510;2023-01-20T01:26:55;101116.59;;;3.81;100.00
11440;BME280;5776;51.814;4.510;2023-01-20T01:29:21;101125.72;;;3.80;100.00
11440;BME280;5776;51.814;4.510;2023-01-20T01:31:47;101124.09;;;3.79;100.00
11440;BME280;5776;51.814;4.510;2023-01-20T01:34:13;101125.13;;;3.78;100.00
11440;BME280;5776;51.814;4.510;2023-01-20T01:36:40;101127.34;;;3.81;100.00
11440;BME280;5776;51.814;4.510;2023-01-20T01:39:06;101146.16;;;3.81;100.00
11440;BME280;5776;51.814;4.510;2023-01-20T01:41:31;101149.69;;;3.81;100.00
11440;BME280;5776;51.814;4.510;2023-01-20T01:44:09;101148.84;;;3.81;100.00
11440;BME280;5776;51.814;4.510;2023-01-20T01:46:36;101140.78;;;3.81;100.00
11440;BME280;5776;51.814;4.510;2023-01-20T01:49:16;101144.03;;;3.83;100.00
11440;BME280;5776;51.814;4.510;2023-01-20T01:54:25;101154.22;;;3.81;100.00
11440;BME280;5776;51.814;4.510;2023-01-20T01:56:52;101157.47;;;3.83;100.00
11440;BME280;5776;51.814;4.510;2023-01-20T01:59:19;101162.16;;;3.87;100.00
11440;BME280;5776;51.814;4.510;2023-01-20T02:01:52;101162.38;;;3.86;100.00
11440;BME280;5776;51.814;4.510;2023-01-20T02:04:20;101154.56;;;3.84;100.00
11440;BME280;5776;51.814;4.510;2023-01-20T02:06:50;101160.44;;;3.81;100.00
11440;BME280;5776;51.814;4.510;2023-01-20T02:09:16;101157.97;;;3.80;100.00
11440;BME280;5776;51.814;4.510;2023-01-20T02:11:49;101153.41;;;3.80;100.00
11440;BME280;5776;51.814;4.510;2023-01-20T02:14:18;101157.72;;;3.81;100.00
11440;BME280;5776;51.814;4.510;2023-01-20T02:17:22;101159.47;;;3.76;100.00
11440;BME280;5776;51.814;4.510;2023-01-20T02:33:45;101154.22;;;3.69;100.00
11440;BME280;5776;51.814;4.510;2023-01-20T02:36:47;101157.72;;;3.70;100.00
11440;BME280;5776;51.814;4.510;2023-01-20T02:39:25;101154.47;;;3.67;100.00
11440;BME280;5776;51.814;4.510;2023-01-20T02:42:15;101148.03;;;3.68;100.00
11440;BME280;5776;51.814;4.510;2023-01-20T02:45:07;101162.03;;;3.71;100.00
11440;BME280;5776;51.814;4.510;2023-01-20T02:47:44;101153.97;;;3.71;100.00
11440;BME280;5776;51.814;4.510;2023-01-20T02:50:24;101159.03;;;3.67;100.00
11440;BME280;5776;51.814;4.510;2023-01-20T02:52:55;101151.19;;;3.65;100.00
11440;BME280;5776;51.814;4.510;2023-01-20T02:58:02;101148.28;;;3.67;100.00
11440;BME280;5776;51.814;4.510;2023-01-20T03:00:40;101156.81;;;3.64;100.00
11440;BME280;5776;51.814;4.510;2023-01-20T03:03:10;101146.88;;;3.64;100.00
11440;BME280;5776;51.814;4.510;2023-01-20T03:05:40;101150.84;;;3.62;100.00
11440;BME280;5776;51.814;4.510;2023-01-20T03:08:09;101144.66;;;3.61;100.00
11440;BME280;5776;51.814;4.510;2023-01-20T03:10:37;101148.16;;;3.62;100.00
11440;BME280;5776;51.814;4.510;2023-01-20T03:18:15;101164.50;;;3.60;100.00
11440;BME280;5776;51.814;4.510;2023-01-20T03:20:41;101161.81;;;3.60;100.00
11440;BME280;5776;51.814;4.510;2023-01-20T03:23:07;101160.78;;;3.61;100.00
11440;BME280;5776;51.814;4.510;2023-01-20T03:25:33;101168.25;;;3.59;100.00
11440;BME280;5776;51.814;4.510;2023-01-20T03:27:59;101162.06;;;3.59;100.00
11440;BME280;5776;51.814;4.510;2023-01-20T03:30:25;101153.16;;;3.58;100.00
11440;BME280;5776;51.814;4.510;2023-01-20T03:32:51;101157.50;;;3.59;100.00
11440;BME280;5776;51.814;4.510;2023-01-20T03:35:18;101150.47;;;3.58;100.00
11440;BME280;5776;51.814;4.510;2023-01-20T03:37:44;101155.84;;;3.58;100.00
11440;BME280;5776;51.814;4.510;2023-01-20T03:40:11;101155.84;;;3.58;100.00
11440;BME280;5776;51.814;4.510;2023-01-20T03:42:59;101163.09;;;3.58;100.00
11440;BME280;5776;51.814;4.510;2023-01-20T03:48:16;101148.25;;;3.55;100.00
11440;BME280;5776;51.814;4.510;2023-01-20T03:50:54;101156.09;;;3.57;100.00
11440;BME280;5776;51.814;4.510;2023-01-20T03:53:33;101153.41;;;3.57;100.00
11440;BME280;5776;51.814;4.510;2023-01-20T03:56:06;101161.22;;;3.58;100.00
11440;BME280;5776;51.814;4.510;2023-01-20T03:58:38;101149.44;;;3.59;100.00
11440;BME280;5776;51.814;4.510;2023-01-20T04:01:08;101151.31;;;3.59;100.00
11440;BME280;5776;51.814;4.510;2023-01-20T04:03:41;101150.94;;;3.55;100.00
11440;BME280;5776;51.814;4.510;2023-01-20T04:06:10;101150.94;;;3.55;100.00
11440;BME280;5776;51.814;4.510;2023-01-20T04:08:46;101149.56;;;3.53;100.00
11440;BME280;5776;51.814;4.510;2023-01-20T04:11:13;101154.69;;;3.54;100.00
11440;BME280;5776;51.814;4.510;2023-01-20T04:13:39;101156.31;;;3.55;100.00
11440;BME280;5776;51.814;4.510;2023-01-20T04:16:10;101169.16;;;3.53;100.00
11440;BME280;5776;51.814;4.510;2023-01-20T04:18:44;101160.28;;;3.53;100.00
11440;BME280;5776;51.814;4.510;2023-01-20T04:21:15;101168.94;;;3.55;100.00
11440;BME280;5776;51.814;4.510;2023-01-20T04:23:53;101162.97;;;3.53;100.00
11440;BME280;5776;51.814;4.510;2023-01-20T04:26:21;101163.34;;;3.56;100.00
11440;BME280;5776;51.814;4.510;2023-01-20T04:28:46;101171.84;;;3.53;100.00
11440;BME280;5776;51.814;4.510;2023-01-20T04:31:12;101175.59;;;3.52;100.00
11440;BME280;5776;51.814;4.510;2023-01-20T04:33:40;101165.06;;;3.51;100.00
11440;BME280;5776;51.814;4.510;2023-01-20T04:36:06;101167.53;;;3.52;100.00
11440;BME280;5776;51.814;4.510;2023-01-20T04:38:32;101169.63;;;3.50;100.00
11440;BME280;5776;51.814;4.510;2023-01-20T04:40:58;101172.91;;;3.52;100.00
11440;BME280;5776;51.814;4.510;2023-01-20T04:43:24;101172.91;;;3.52;100.00
11440;BME280;5776;51.814;4.510;2023-01-20T04:45:50;101165.66;;;3.53;100.00
11440;BME280;5776;51.814;4.510;2023-01-20T04:48:16;101171.84;;;3.53;100.00
11440;BME280;5776;51.814;4.510;2023-01-20T04:50:42;101167.88;;;3.56;100.00
11440;BME280;5776;51.814;4.510;2023-01-20T04:53:12;101175.38;;;3.54;100.00
11440;BME280;5776;51.814;4.510;2023-01-20T04:55:41;101174.53;;;3.53;100.00
11440;BME280;5776;51.814;4.510;2023-01-20T04:58:10;101168.59;;;3.51;100.00
11440;BME280;5776;51.814;4.510;2023-01-20T05:00:36;101173.38;;;3.49;100.00
11440;BME280;5776;51.814;4.510;2023-01-20T05:03:02;101172.53;;;3.49;100.00
11440;BME280;5776;51.814;4.510;2023-01-20T05:05:28;101175.00;;;3.50;100.00
11440;BME280;5776;51.814;4.510;2023-01-20T05:07:54;101182.03;;;3.51;100.00
11440;BME280;5776;51.814;4.510;2023-01-20T05:10:21;101183.66;;;3.52;100.00
11440;BME280;5776;51.814;4.510;2023-01-20T05:12:47;101180.38;;;3.50;100.00
11440;BME280;5776;51.814;4.510;2023-01-20T05:15:13;101183.88;;;3.51;100.00
11440;BME280;5776;51.814;4.510;2023-01-20T05:17:39;101192.78;;;3.51;100.00
11440;BME280;5776;51.814;4.510;2023-01-20T05:20:06;101191.72;;;3.52;100.00
11440;BME280;5776;51.814;4.510;2023-01-20T05:22:32;101189.03;;;3.52;100.00
11440;BME280;5776;51.814;4.510;2023-01-20T05:24:58;101184.13;;;3.49;100.00
11440;BME280;5776;51.814;4.510;2023-01-20T05:27:25;101183.88;;;3.51;100.00
11440;BME280;5776;51.814;4.510;2023-01-20T05:29:51;101195.69;;;3.50;100.00
11440;BME280;5776;51.814;4.510;2023-01-20T05:32:16;101200.84;;;3.51;100.00
11440;BME280;5776;51.814;4.510;2023-01-20T05:34:42;101208.88;;;3.51;100.00
11440;BME280;5776;51.814;4.510;2023-01-20T05:37:08;101211.56;;;3.51;100.00
11440;BME280;5776;51.814;4.510;2023-01-20T05:39:34;101219.25;;;3.47;100.00
11440;BME280;5776;51.814;4.510;2023-01-20T05:42:00;101216.56;;;3.47;100.00
11440;BME280;5776;51.814;4.510;2023-01-20T05:44:26;101207.69;;;3.47;100.00
11440;BME280;5776;51.814;4.510;2023-01-20T05:46:52;101204.22;;;3.46;100.00
11440;BME280;5776;51.814;4.510;2023-01-20T05:49:18;101199.88;;;3.45;100.00
11440;BME280;5776;51.814;4.510;2023-01-20T05:51:44;101197.19;;;3.45;100.00
11440;BME280;5776;51.814;4.510;2023-01-20T05:54:10;101203.97;;;3.48;100.00
11440;BME280;5776;51.814;4.510;2023-01-20T05:56:36;101195.09;;;3.47;100.00
11440;BME280;5776;51.814;4.510;2023-01-20T05:59:02;101201.06;;;3.50;100.00
11440;BME280;5776;51.814;4.510;2023-01-20T06:01:28;101199.19;;;3.50;100.00
11440;BME280;5776;51.814;4.510;2023-01-20T06:03:54;101202.44;;;3.52;100.00
11440;BME280;5776;51.814;4.510;2023-01-20T06:06:20;101201.63;;;3.52;100.00
11440;BME280;5776;51.814;4.510;2023-01-20T06:08:45;101198.16;;;3.51;100.00
11440;BME280;5776;51.814;4.510;2023-01-20T06:11:11;101204.31;;;3.52;100.00
11440;BME280;5776;51.814;4.510;2023-01-20T06:13:39;101212.13;;;3.53;100.00
11440;BME280;5776;51.814;4.510;2023-01-20T06:16:05;101205.34;;;3.51;100.00
11440;BME280;5776;51.814;4.510;2023-01-20T06:18:32;101201.63;;;3.52;100.00
11440;BME280;5776;51.814;4.510;2023-01-20T06:20:58;101203.97;;;3.60;100.00
11440;BME280;5776;51.814;4.510;2023-01-20T06:23:25;101208.41;;;3.78;100.00
11440;BME280;5776;51.814;4.510;2023-01-20T06:25:58;101208.91;;;3.86;100.00
11440;BME280;5776;51.814;4.510;2023-01-20T06:28:24;101210.63;;;3.93;100.00
11440;BME280;5776;51.814;4.510;2023-01-20T06:30:50;101202.34;;;3.94;100.00
11440;BME280;5776;51.814;4.510;2023-01-20T06:33:16;101201.88;;;3.97;100.00
11440;BME280;5776;51.814;4.510;2023-01-20T06:35:41;101207.84;;;3.99;100.00
11440;BME280;5776;51.814;4.510;2023-01-20T06:38:07;101207.59;;;4.01;100.00
11440;BME280;5776;51.814;4.510;2023-01-20T06:40:33;101195.22;;;4.00;100.00
11440;BME280;5776;51.814;4.510;2023-01-20T06:42:59;101192.31;;;4.01;100.00
11440;BME280;5776;51.814;4.510;2023-01-20T06:45:25;101197.19;;;4.04;100.00
11440;BME280;5776;51.814;4.510;2023-01-20T06:47:51;101189.94;;;4.05;100.00
11440;BME280;5776;51.814;4.510;2023-01-20T06:50:17;101191.00;;;4.04;100.00
11440;BME280;5776;51.814;4.510;2023-01-20T06:52:42;101198.22;;;4.03;100.00
11440;BME280;5776;51.814;4.510;2023-01-20T06:55:08;101199.06;;;4.04;100.00
11440;BME280;5776;51.814;4.510;2023-01-20T06:57:34;101200.69;;;4.05;100.00
11440;BME280;5776;51.814;4.510;2023-01-20T07:00:01;101197.19;;;4.04;100.00
11440;BME280;5776;51.814;4.510;2023-01-20T07:02:27;101206.88;;;4.05;100.00
11440;BME280;5776;51.814;4.510;2023-01-20T07:04:52;101207.94;;;4.04;100.00
11440;BME280;5776;51.814;4.510;2023-01-20T07:07:18;101206.66;;;4.07;100.00
11440;BME280;5776;51.814;4.510;2023-01-20T07:09:44;101213.91;;;4.06;100.00
11440;BME280;5776;51.814;4.510;2023-01-20T07:12:10;101214.47;;;4.08;100.00
11440;BME280;5776;51.814;4.510;2023-01-20T07:14:36;101220.44;;;4.10;100.00
11440;BME280;5776;51.814;4.510;2023-01-20T07:17:02;101212.84;;;4.07;100.00
11440;BME280;5776;51.814;4.510;2023-01-20T07:19:28;101210.88;;;3.91;100.00
11440;BME280;5776;51.814;4.510;2023-01-20T07:21:54;101207.94;;;3.81;100.00
11440;BME280;5776;51.814;4.510;2023-01-20T07:24:20;101213.19;;;3.76;100.00
11440;BME280;5776;51.814;4.510;2023-01-20T07:26:45;101221.25;;;3.76;100.00
11440;BME280;5776;51.814;4.510;2023-01-20T07:29:11;101214.03;;;3.88;100.00
11440;BME280;5776;51.814;4.510;2023-01-20T07:31:37;101218.59;;;3.99;100.00
11440;BME280;5776;51.814;4.510;2023-01-20T07:34:04;101213.31;;;4.04;100.00
11440;BME280;5776;51.814;4.510;2023-01-20T07:36:30;101219.63;;;4.10;100.00
11440;BME280;5776;51.814;4.510;2023-01-20T07:38:56;101219.41;;;4.11;100.00
11440;BME280;5776;51.814;4.510;2023-01-20T07:41:22;101229.69;;;4.15;100.00
11440;BME280;5776;51.814;4.510;2023-01-20T07:43:50;101224.88;;;4.17;100.00
11440;BME280;5776;51.814;4.510;2023-01-20T07:46:17;101235.16;;;4.20;100.00
11440;BME280;5776;51.814;4.510;2023-01-20T07:48:43;101230.81;;;4.19;100.00
11440;BME280;5776;51.814;4.510;2023-01-20T07:51:11;101234.56;;;4.18;100.00
11440;BME280;5776;51.814;4.510;2023-01-20T07:53:40;101243.72;;;4.17;100.00
11440;BME280;5776;51.814;4.510;2023-01-20T07:56:09;101248.03;;;4.18;100.00
11440;BME280;5776;51.814;4.510;2023-01-20T07:58:37;101250.72;;;4.18;100.00
11440;BME280;5776;51.814;4.510;2023-01-20T08:01:13;101243.22;;;4.20;100.00
11440;BME280;5776;51.814;4.510;2023-01-20T08:03:40;101239.47;;;4.21;100.00
11440;BME280;5776;51.814;4.510;2023-01-20T08:06:10;101236.19;;;4.19;100.00
11440;BME280;5776;51.814;4.510;2023-01-20T08:08:37;101256.41;;;4.21;100.00
11440;BME280;5776;51.814;4.510;2023-01-20T08:11:04;101250.81;;;4.23;100.00
11440;BME280;5776;51.814;4.510;2023-01-20T08:13:31;101249.19;;;4.22;100.00
11440;BME280;5776;51.814;4.510;2023-01-20T08:16:02;101240.88;;;4.23;100.00
11440;BME280;5776;51.814;4.510;2023-01-20T08:18:28;101237.97;;;4.25;100.00
11440;BME280;5776;51.814;4.510;2023-01-20T08:20:54;101246.84;;;4.25;100.00
11440;BME280;5776;51.814;4.510;2023-01-20T08:23:20;101244.97;;;4.26;100.00
11440;BME280;5776;51.814;4.510;2023-01-20T08:25:46;101250.59;;;4.24;100.00
11440;BME280;5776;51.814;4.510;2023-01-20T08:28:12;101254.69;;;4.27;100.00
11440;BME280;5776;51.814;4.510;2023-01-20T08:30:38;101260.06;;;4.27;100.00
11440;BME280;5776;51.814;4.510;2023-01-20T08:33:04;101279.13;;;4.25;100.00
11440;BME280;5776;51.814;4.510;2023-01-20T08:35:29;101277.50;;;4.24;100.00
11440;BME280;5776;51.814;4.510;2023-01-20T08:37:55;101283.19;;;4.28;100.00
11440;BME280;5776;51.814;4.510;2023-01-20T08:40:21;101284.50;;;4.25;100.00
11440;BME280;5776;51.814;4.510;2023-01-20T08:42:48;101288.25;;;4.24;100.00
11440;BME280;5776;51.814;4.510;2023-01-20T08:45:14;101277.81;;;4.28;100.00
11440;BME280;5776;51.814;4.510;2023-01-20T08:47:41;101282.16;;;4.29;100.00
11440;BME280;5776;51.814;4.510;2023-01-20T08:50:12;101278.78;;;4.22;100.00
11440;BME280;5776;51.814;4.510;2023-01-20T08:52:39;101282.97;;;4.18;100.00
11440;BME280;5776;51.814;4.510;2023-01-20T08:55:06;101284.84;;;4.17;100.00
11440;BME280;5776;51.814;4.510;2023-01-20T08:57:31;101287.16;;;4.14;100.00
11440;BME280;5776;51.814;4.510;2023-01-20T08:59:57;101290.13;;;4.12;100.00
11440;BME280;5776;51.814;4.510;2023-01-20T09:02:23;101289.75;;;4.08;100.00
11440;BME280;5776;51.814;4.510;2023-01-20T09:04:50;101290.44;;;3.92;100.00
11440;BME280;5776;51.814;4.510;2023-01-20T09:07:18;101289.16;;;3.83;100.00
11440;BME280;5776;51.814;4.510;2023-01-20T09:09:45;101284.38;;;4.08;100.00
11440;BME280;5776;51.814;4.510;2023-01-20T09:12:10;101285.44;;;4.19;100.00
11440;BME280;5776;51.814;4.510;2023-01-20T09:14:36;101292.34;;;4.27;100.00
11440;BME280;5776;51.814;4.510;2023-01-20T09:17:02;101300.50;;;4.32;100.00
11440;BME280;5776;51.814;4.510;2023-01-20T09:19:28;101302.50;;;4.37;100.00
11440;BME280;5776;51.814;4.510;2023-01-20T09:21:54;101312.63;;;4.46;100.00
11440;BME280;5776;51.814;4.510;2023-01-20T09:24:21;101318.88;;;4.47;100.00
11440;BME280;5776;51.814;4.510;2023-01-20T09:26:47;101321.06;;;4.50;100.00
11440;BME280;5776;51.814;4.510;2023-01-20T09:29:15;101321.19;;;4.55;100.00
11440;BME280;5776;51.814;4.510;2023-01-20T09:31:44;101314.50;;;4.58;100.00
11440;BME280;5776;51.814;4.510;2023-01-20T09:34:14;101316.50;;;4.62;100.00
11440;BME280;5776;51.814;4.510;2023-01-20T09:36:59;101307.72;;;4.67;100.00
11440;BME280;5776;51.814;4.510;2023-01-20T09:39:43;101311.44;;;4.66;100.00
11440;BME280;5776;51.814;4.510;2023-01-20T09:45:32;101318.72;;;4.53;100.00
11440;BME280;5776;51.814;4.510;2023-01-20T09:48:45;101326.44;;;4.50;100.00
11440;BME280;5776;51.814;4.510;2023-01-20T09:54:54;101360.03;;;4.47;100.00
11440;BME280;5776;51.814;4.510;2023-01-20T09:57:24;101368.09;;;4.47;100.00
11440;BME280;5776;51.814;4.510;2023-01-20T10:00:04;101373.69;;;4.46;100.00
11440;BME280;5776;51.814;4.510;2023-01-20T10:02:34;101374.50;;;4.46;100.00
11440;BME280;5776;51.814;4.510;2023-01-20T10:05:11;101370.78;;;4.47;100.00
11440;BME280;5776;51.814;4.510;2023-01-20T10:07:47;101369.72;;;4.48;100.00
11440;BME280;5776;51.814;4.510;2023-01-20T10:10:29;101367.84;;;4.49;100.00
11440;BME280;5776;51.814;4.510;2023-01-20T10:13:04;101368.78;;;4.31;100.00
11440;BME280;5776;51.814;4.510;2023-01-20T10:15:35;101360.72;;;4.19;100.00
11440;BME280;5776;51.814;4.510;2023-01-20T10:20:58;101373.94;;;4.44;100.00
11440;BME280;5776;51.814;4.510;2023-01-20T10:26:15;101375.09;;;4.48;100.00
11440;BME280;5776;51.814;4.510;2023-01-20T10:28:50;101374.06;;;4.49;100.00
11440;BME280;5776;51.814;4.510;2023-01-20T10:31:24;101359.78;;;4.49;100.00
11440;BME280;5776;51.814;4.510;2023-01-20T10:33:54;101353.13;;;4.51;100.00
11440;BME280;5776;51.814;4.510;2023-01-20T10:36:26;101360.03;;;4.59;100.00
11440;BME280;5776;51.814;4.510;2023-01-20T10:38:58;101350.28;;;4.70;100.00
11440;BME280;5776;51.814;4.510;2023-01-20T10:41:42;101349.34;;;4.76;100.00
11440;BME280;5776;51.814;4.510;2023-01-20T10:44:11;101352.19;;;4.69;100.00
11440;BME280;5776;51.814;4.510;2023-01-20T10:51:51;101366.19;;;4.83;100.00
11440;BME280;5776;51.814;4.510;2023-01-20T10:57:21;101361.38;;;4.85;100.00
11440;BME280;5776;51.814;4.510;2023-01-20T10:59:49;101352.72;;;4.83;100.00
11440;BME280;5776;51.814;4.510;2023-01-20T11:02:27;101351.91;;;4.94;100.00
11440;BME280;5776;51.814;4.510;2023-01-20T11:04:58;101349.53;;;4.98;100.00
11440;BME280;5776;51.814;4.510;2023-01-20T11:07:25;101338.88;;;4.91;100.00
11440;BME280;5776;51.814;4.510;2023-01-20T11:09:51;101337.75;;;4.87;100.00
11440;BME280;5776;51.814;4.510;2023-01-20T11:12:21;101345.47;;;4.84;100.00
11440;BME280;5776;51.814;4.510;2023-01-20T11:14:48;101344.66;;;4.83;100.00
11440;BME280;5776;51.814;4.510;2023-01-20T11:17:17;101349.22;;;4.83;100.00
11440;BME280;5776;51.814;4.510;2023-01-20T11:22:16;101359.75;;;4.84;100.00
11440;BME280;5776;51.814;4.510;2023-01-20T11:24:46;101368.41;;;4.86;100.00
11440;BME280;5776;51.814;4.510;2023-01-20T11:27:18;101365.59;;;4.93;100.00
11440;BME280;5776;51.814;4.510;2023-01-20T11:29:50;101354.69;;;5.00;100.00
11440;BME280;5776;51.814;4.510;2023-01-20T11:32:25;101360.41;;;5.03;100.00
11440;BME280;5776;51.814;4.510;2023-01-20T11:34:52;101345.16;;;5.09;100.00
11440;BME280;5776;51.814;4.510;2023-01-20T11:37:24;101350.31;;;5.10;100.00
11440;BME280;5776;51.814;4.510;2023-01-20T11:39:58;101347.63;;;5.10;100.00
11440;BME280;5776;51.814;4.510;2023-01-20T11:42:29;101353.34;;;5.14;100.00
11440;BME280;5776;51.814;4.510;2023-01-20T11:45:33;101338.03;;;5.14;100.00
11440;BME280;5776;51.814;4.510;2023-01-20T11:48:16;101347.25;;;5.18;100.00
11440;BME280;5776;51.814;4.510;2023-01-20T11:50:52;101341.84;;;5.18;100.00
11440;BME280;5776;51.814;4.510;2023-01-20T11:53:29;101340.81;;;5.19;100.00
11440;BME280;5776;51.814;4.510;2023-01-20T11:56:18;101337.41;;;5.24;100.00
11440;BME280;5776;51.814;4.510;2023-01-20T11:58:54;101344.91;;;5.22;100.00
11440;BME280;5776;51.814;4.510;2023-01-20T12:09:28;101345.25;;;5.14;100.00
11440;BME280;5776;51.814;4.510;2023-01-20T12:12:03;101356.03;;;5.14;100.00
11440;BME280;5776;51.814;4.510;2023-01-20T12:14:33;101352.19;;;5.10;100.00
11440;BME280;5776;51.814;4.510;2023-01-20T12:22:22;101348.69;;;5.09;100.00
11440;BME280;5776;51.814;4.510;2023-01-20T12:25:03;101337.28;;;5.19;100.00
11440;BME280;5776;51.814;4.510;2023-01-20T12:27:41;101336.38;;;5.13;100.00
11440;BME280;5776;51.814;4.510;2023-01-20T12:30:26;101331.81;;;5.14;100.00
11440;BME280;5776;51.814;4.510;2023-01-20T12:32:53;101351.72;;;5.13;100.00
11440;BME280;5776;51.814;4.510;2023-01-20T12:35:22;101362.72;;;5.11;100.00
11440;BME280;5776;51.814;4.510;2023-01-20T12:38:10;101368.94;;;5.12;100.00
11440;BME280;5776;51.814;4.510;2023-01-20T12:40:52;101370.38;;;5.31;100.00
11440;BME280;5776;51.814;4.510;2023-01-20T12:46:44;101374.34;;;5.40;100.00
11440;BME280;5776;51.814;4.510;2023-01-20T12:49:44;101391.19;;;5.48;100.00
11440;BME280;5776;51.814;4.510;2023-01-20T13:12:45;101363.84;;;5.56;100.00
11440;BME280;5776;51.814;4.510;2023-01-20T13:15:29;101366.06;;;5.59;100.00
11440;BME280;5776;51.814;4.510;2023-01-20T13:18:22;101367.94;;;5.58;100.00
11440;BME280;5776;51.814;4.510;2023-01-20T13:20:50;101370.88;;;5.57;100.00
11440;BME280;5776;51.814;4.510;2023-01-20T13:23:28;101368.75;;;5.59;100.00
11440;BME280;5776;51.814;4.510;2023-01-20T13:25:57;101377.41;;;5.61;100.00
11440;BME280;5776;51.814;4.510;2023-01-20T13:28:27;101384.47;;;5.62;100.00
11440;BME280;5776;51.814;4.510;2023-01-20T13:30:54;101392.88;;;5.66;100.00
11440;BME280;5776;51.814;4.510;2023-01-20T13:36:12;101393.31;;;5.34;100.00
11440;BME280;5776;51.814;4.510;2023-01-20T13:38:39;101401.88;;;5.43;100.00
11440;BME280;5776;51.814;4.510;2023-01-20T13:41:05;101397.28;;;5.43;100.00
11440;BME280;5776;51.814;4.510;2023-01-20T13:48:36;101401.72;;;5.49;100.00
11440;BME280;5776;51.814;4.510;2023-01-20T13:56:50;101389.09;;;5.67;100.00
11440;BME280;5776;51.814;4.510;2023-01-20T13:59:16;101389.50;;;5.58;100.00
11440;BME280;5776;51.814;4.510;2023-01-20T14:01:42;101397.94;;;5.62;100.00
11440;BME280;5776;51.814;4.510;2023-01-20T14:04:16;101394.97;;;5.63;100.00
11440;BME280;5776;51.814;4.510;2023-01-20T14:06:48;101397.91;;;5.33;100.00
11440;BME280;5776;51.814;4.510;2023-01-20T14:09:22;101397.91;;;5.33;100.00
11440;BME280;5776;51.814;4.510;2023-01-20T14:11:50;101406.25;;;5.32;100.00
11440;BME280;5776;51.814;4.510;2023-01-20T14:14:18;101399.88;;;5.38;100.00
11440;BME280;5776;51.814;4.510;2023-01-20T14:16:45;101399.03;;;5.49;100.00
11440;BME280;5776;51.814;4.510;2023-01-20T14:19:31;101406.81;;;5.62;100.00
11440;BME280;5776;51.814;4.510;2023-01-20T14:22:00;101410.91;;;5.65;100.00
11440;BME280;5776;51.814;4.510;2023-01-20T14:24:41;101409.69;;;5.44;100.00
11440;BME280;5776;51.814;4.510;2023-01-20T14:27:16;101414.38;;;5.49;100.00
11440;BME280;5776;51.814;4.510;2023-01-20T14:29:44;101411.22;;;5.52;100.00
11440;BME280;5776;51.814;4.510;2023-01-20T14:32:33;101413.00;;;5.75;100.00
11440;BME280;5776;51.814;4.510;2023-01-20T14:35:01;101409.97;;;5.88;100.00
11440;BME280;5776;51.814;4.510;2023-01-20T14:37:34;101410.91;;;5.94;100.00
11440;BME280;5776;51.814;4.510;2023-01-20T14:42:37;101422.38;;;5.72;100.00
11440;BME280;5776;51.814;4.510;2023-01-20T14:45:19;101424.97;;;5.67;100.00
11440;BME280;5776;51.814;4.510;2023-01-20T14:47:47;101423.81;;;5.63;100.00
11440;BME280;5776;51.814;4.510;2023-01-20T14:50:14;101433.19;;;5.60;100.00
11440;BME280;5776;51.814;4.510;2023-01-20T14:52:41;101436.97;;;5.59;100.00
11440;BME280;5776;51.814;4.510;2023-01-20T14:55:31;101440.06;;;5.68;100.00
11440;BME280;5776;51.814;4.510;2023-01-20T14:57:59;101452.84;;;5.73;100.00